sensor_id;sensor_type;location;lat;lon;timestamp;P1;durP1;ratioP1;P2;durP2;ratioP2
22904;SDS011;11619;50.140;8.518;2024-01-30T00:01:49;18.17;;;14.38;;
22904;SDS011;11619;50.140;8.518;2024-01-30T00:04:15;15.25;;;12.52;;
22904;SDS011;11619;50.140;8.518;2024-01-30T00:06:45;15.13;;;13.48;;
22904;SDS011;11619;50.140;8.518;2024-01-30T00:09:12;14.82;;;12.95;;
22904;SDS011;11619;50.140;8.518;2024-01-30T00:11:39;13.50;;;11.98;;
22904;SDS011;11619;50.140;8.518;2024-01-30T00:14:05;16.45;;;13.00;;
22904;SDS011;11619;50.140;8.518;2024-01-30T00:16:32;18.40;;;13.50;;
22904;SDS011;11619;50.140;8.518;2024-01-30T00:18:58;15.50;;;11.73;;
22904;SDS011;11619;50.140;8.518;2024-01-30T00:21:25;15.80;;;11.98;;
22904;SDS011;11619;50.140;8.518;2024-01-30T00:23:51;16.85;;;13.90;;
22904;SDS011;11619;50.140;8.518;2024-01-30T00:26:18;14.98;;;12.98;;
22904;SDS011;11619;50.140;8.518;2024-01-30T00:28:44;16.70;;;12.15;;
22904;SDS011;11619;50.140;8.518;2024-01-30T00:31:11;17.90;;;13.40;;
22904;SDS011;11619;50.140;8.518;2024-01-30T00:33:39;16.48;;;13.15;;
22904;SDS011;11619;50.140;8.518;2024-01-30T00:36:07;16.60;;;13.70;;
22904;SDS011;11619;50.140;8.518;2024-01-30T00:38:34;17.90;;;13.07;;
22904;SDS011;11619;50.140;8.518;2024-01-30T00:41:00;16.83;;;12.25;;
22904;SDS011;11619;50.140;8.518;2024-01-30T00:43:28;17.08;;;12.77;;
22904;SDS011;11619;50.140;8.518;2024-01-30T00:45:55;16.45;;;12.95;;
22904;SDS011;11619;50.140;8.518;2024-01-30T00:48:21;15.65;;;13.25;;
22904;SDS011;11619;50.140;8.518;2024-01-30T00:50:48;15.32;;;12.20;;
22904;SDS011;11619;50.140;8.518;2024-01-30T00:53:14;15.02;;;12.63;;
22904;SDS011;11619;50.140;8.518;2024-01-30T00:55:41;18.63;;;14.18;;
22904;SDS011;11619;50.140;8.518;2024-01-30T00:58:07;18.58;;;14.73;;
22904;SDS011;11619;50.140;8.518;2024-01-30T01:00:34;16.60;;;13.75;;
22904;SDS011;11619;50.140;8.518;2024-01-30T01:03:00;18.70;;;13.98;;
22904;SDS011;11619;50.140;8.518;2024-01-30T01:05:27;16.83;;;13.30;;
22904;SDS011;11619;50.140;8.518;2024-01-30T01:07:54;19.27;;;14.25;;
22904;SDS011;11619;50.140;8.518;2024-01-30T01:10:20;15.40;;;13.00;;
22904;SDS011;11619;50.140;8.518;2024-01-30T01:12:47;14.85;;;13.20;;
22904;SDS011;11619;50.140;8.518;2024-01-30T01:15:14;15.95;;;13.10;;
22904;SDS011;11619;50.140;8.518;2024-01-30T01:17:41;19.08;;;13.90;;
22904;SDS011;11619;50.140;8.518;2024-01-30T01:20:07;15.82;;;12.82;;
22904;SDS011;11619;50.140;8.518;2024-01-30T01:22:34;15.88;;;13.23;;
22904;SDS011;11619;50.140;8.518;2024-01-30T01:25:01;16.80;;;12.68;;
22904;SDS011;11619;50.140;8.518;2024-01-30T01:27:27;16.17;;;13.07;;
22904;SDS011;11619;50.140;8.518;2024-01-30T01:29:54;16.67;;;13.40;;
22904;SDS011;11619;50.140;8.518;2024-01-30T01:32:20;17.67;;;13.90;;
22904;SDS011;11619;50.140;8.518;2024-01-30T01:34:47;15.05;;;12.98;;
22904;SDS011;11619;50.140;8.518;2024-01-30T01:37:14;18.63;;;14.05;;
22904;SDS011;11619;50.140;8.518;2024-01-30T01:39:40;17.27;;;13.32;;
22904;SDS011;11619;50.140;8.518;2024-01-30T01:42:07;17.90;;;13.32;;
22904;SDS011;11619;50.140;8.518;2024-01-30T01:44:33;17.00;;;13.88;;
22904;SDS011;11619;50.140;8.518;2024-01-30T01:47:00;16.17;;;13.00;;
22904;SDS011;11619;50.140;8.518;2024-01-30T01:49:27;16.80;;;13.93;;
22904;SDS011;11619;50.140;8.518;2024-01-30T01:51:54;15.18;;;13.40;;
22904;SDS011;11619;50.140;8.518;2024-01-30T01:54:23;16.00;;;13.23;;
22904;SDS011;11619;50.140;8.518;2024-01-30T01:56:51;15.25;;;13.65;;
22904;SDS011;11619;50.140;8.518;2024-01-30T01:59:18;14.13;;;11.43;;
22904;SDS011;11619;50.140;8.518;2024-01-30T02:01:46;16.00;;;13.27;;
22904;SDS011;11619;50.140;8.518;2024-01-30T02:04:15;16.20;;;13.32;;
22904;SDS011;11619;50.140;8.518;2024-01-30T02:06:43;21.00;;;14.20;;
22904;SDS011;11619;50.140;8.518;2024-01-30T02:09:09;19.67;;;13.88;;
22904;SDS011;11619;50.140;8.518;2024-01-30T02:11:36;16.42;;;13.82;;
22904;SDS011;11619;50.140;8.518;2024-01-30T02:14:03;18.90;;;14.15;;
22904;SDS011;11619;50.140;8.518;2024-01-30T02:16:30;19.17;;;13.65;;
22904;SDS011;11619;50.140;8.518;2024-01-30T02:18:57;16.40;;;14.02;;
22904;SDS011;11619;50.140;8.518;2024-01-30T02:21:24;16.27;;;12.98;;
22904;SDS011;11619;50.140;8.518;2024-01-30T02:23:50;15.95;;;12.95;;
22904;SDS011;11619;50.140;8.518;2024-01-30T02:26:18;15.68;;;13.77;;
22904;SDS011;11619;50.140;8.518;2024-01-30T02:28:46;16.25;;;13.18;;
22904;SDS011;11619;50.140;8.518;2024-01-30T02:31:12;14.77;;;13.07;;
22904;SDS011;11619;50.140;8.518;2024-01-30T02:33:39;17.85;;;13.25;;
22904;SDS011;11619;50.140;8.518;2024-01-30T02:36:05;15.50;;;13.00;;
22904;SDS011;11619;50.140;8.518;2024-01-30T02:38:32;14.70;;;12.75;;
22904;SDS011;11619;50.140;8.518;2024-01-30T02:40:58;17.02;;;13.70;;
22904;SDS011;11619;50.140;8.518;2024-01-30T02:43:25;15.20;;;13.00;;
22904;SDS011;11619;50.140;8.518;2024-01-30T02:45:51;14.65;;;13.05;;
22904;SDS011;11619;50.140;8.518;2024-01-30T02:48:18;14.80;;;13.07;;
22904;SDS011;11619;50.140;8.518;2024-01-30T02:50:44;13.27;;;11.48;;
22904;SDS011;11619;50.140;8.518;2024-01-30T02:53:12;15.13;;;12.13;;
22904;SDS011;11619;50.140;8.518;2024-01-30T02:55:38;18.58;;;13.07;;
22904;SDS011;11619;50.140;8.518;2024-01-30T02:58:05;14.27;;;12.27;;
22904;SDS011;11619;50.140;8.518;2024-01-30T03:00:31;17.83;;;13.48;;
22904;SDS011;11619;50.140;8.518;2024-01-30T03:02:57;15.85;;;13.27;;
22904;SDS011;11619;50.140;8.518;2024-01-30T03:05:24;15.98;;;12.73;;
22904;SDS011;11619;50.140;8.518;2024-01-30T03:07:51;17.88;;;13.77;;
22904;SDS011;11619;50.140;8.518;2024-01-30T03:10:17;18.40;;;13.75;;
22904;SDS011;11619;50.140;8.518;2024-01-30T03:12:44;15.38;;;12.68;;
22904;SDS011;11619;50.140;8.518;2024-01-30T03:15:10;15.15;;;12.85;;
22904;SDS011;11619;50.140;8.518;2024-01-30T03:17:37;14.63;;;12.68;;
22904;SDS011;11619;50.140;8.518;2024-01-30T03:20:04;16.58;;;13.15;;
22904;SDS011;11619;50.140;8.518;2024-01-30T03:22:32;15.10;;;12.85;;
22904;SDS011;11619;50.140;8.518;2024-01-30T03:24:58;15.38;;;12.07;;
22904;SDS011;11619;50.140;8.518;2024-01-30T03:27:25;18.17;;;13.35;;
22904;SDS011;11619;50.140;8.518;2024-01-30T03:29:51;13.00;;;11.60;;
22904;SDS011;11619;50.140;8.518;2024-01-30T03:32:18;14.45;;;12.32;;
22904;SDS011;11619;50.140;8.518;2024-01-30T03:34:44;14.73;;;12.23;;
22904;SDS011;11619;50.140;8.518;2024-01-30T03:37:11;15.95;;;12.13;;
22904;SDS011;11619;50.140;8.518;2024-01-30T03:39:37;16.30;;;13.13;;
22904;SDS011;11619;50.140;8.518;2024-01-30T03:42:04;14.07;;;11.98;;
22904;SDS011;11619;50.140;8.518;2024-01-30T03:44:31;17.50;;;12.98;;
22904;SDS011;11619;50.140;8.518;2024-01-30T03:46:57;16.65;;;11.40;;
22904;SDS011;11619;50.140;8.518;2024-01-30T03:49:23;15.75;;;12.43;;
22904;SDS011;11619;50.140;8.518;2024-01-30T03:51:50;14.65;;;11.98;;
22904;SDS011;11619;50.140;8.518;2024-01-30T03:54:17;15.43;;;12.55;;
22904;SDS011;11619;50.140;8.518;2024-01-30T03:56:43;14.88;;;13.05;;
22904;SDS011;11619;50.140;8.518;2024-01-30T03:59:10;14.30;;;11.73;;
22904;SDS011;11619;50.140;8.518;2024-01-30T04:01:38;14.60;;;12.70;;
22904;SDS011;11619;50.140;8.518;2024-01-30T04:04:05;17.05;;;12.88;;
22904;SDS011;11619;50.140;8.518;2024-01-30T04:06:32;17.25;;;13.52;;
22904;SDS011;11619;50.140;8.518;2024-01-30T04:08:58;16.25;;;12.55;;
22904;SDS011;11619;50.140;8.518;2024-01-30T04:11:24;18.25;;;13.55;;
22904;SDS011;11619;50.140;8.518;2024-01-30T04:13:51;16.20;;;12.65;;
22904;SDS011;11619;50.140;8.518;2024-01-30T04:16:21;16.58;;;12.63;;
22904;SDS011;11619;50.140;8.518;2024-01-30T04:18:48;15.43;;;12.85;;
22904;SDS011;11619;50.140;8.518;2024-01-30T04:21:15;14.90;;;11.82;;
22904;SDS011;11619;50.140;8.518;2024-01-30T04:23:41;15.38;;;12.55;;
22904;SDS011;11619;50.140;8.518;2024-01-30T04:26:08;15.65;;;13.05;;
22904;SDS011;11619;50.140;8.518;2024-01-30T04:28:34;14.55;;;12.80;;
22904;SDS011;11619;50.140;8.518;2024-01-30T04:31:01;15.70;;;13.43;;
22904;SDS011;11619;50.140;8.518;2024-01-30T04:33:27;15.73;;;13.68;;
22904;SDS011;11619;50.140;8.518;2024-01-30T04:35:54;15.57;;;13.50;;
22904;SDS011;11619;50.140;8.518;2024-01-30T04:38:20;16.58;;;13.70;;
22904;SDS011;11619;50.140;8.518;2024-01-30T04:40:47;12.88;;;11.18;;
22904;SDS011;11619;50.140;8.518;2024-01-30T04:43:13;15.65;;;12.52;;
22904;SDS011;11619;50.140;8.518;2024-01-30T04:45:41;16.35;;;12.90;;
22904;SDS011;11619;50.140;8.518;2024-01-30T04:48:08;14.60;;;12.63;;
22904;SDS011;11619;50.140;8.518;2024-01-30T04:50:34;15.73;;;12.68;;
22904;SDS011;11619;50.140;8.518;2024-01-30T04:53:00;14.68;;;11.75;;
22904;SDS011;11619;50.140;8.518;2024-01-30T04:55:27;15.88;;;12.93;;
22904;SDS011;11619;50.140;8.518;2024-01-30T04:57:53;14.88;;;12.43;;
22904;SDS011;11619;50.140;8.518;2024-01-30T05:00:20;14.00;;;11.40;;
22904;SDS011;11619;50.140;8.518;2024-01-30T05:02:46;14.10;;;11.95;;
22904;SDS011;11619;50.140;8.518;2024-01-30T05:05:13;15.75;;;12.85;;
22904;SDS011;11619;50.140;8.518;2024-01-30T05:07:40;16.13;;;13.32;;
22904;SDS011;11619;50.140;8.518;2024-01-30T05:10:07;20.30;;;13.82;;
22904;SDS011;11619;50.140;8.518;2024-01-30T05:12:34;15.82;;;13.27;;
22904;SDS011;11619;50.140;8.518;2024-01-30T05:15:01;15.10;;;12.88;;
22904;SDS011;11619;50.140;8.518;2024-01-30T05:17:27;15.60;;;12.90;;
22904;SDS011;11619;50.140;8.518;2024-01-30T05:19:53;18.13;;;13.95;;
22904;SDS011;11619;50.140;8.518;2024-01-30T05:22:20;14.43;;;12.52;;
22904;SDS011;11619;50.140;8.518;2024-01-30T05:24:47;15.80;;;13.35;;
22904;SDS011;11619;50.140;8.518;2024-01-30T05:27:13;15.50;;;13.13;;
22904;SDS011;11619;50.140;8.518;2024-01-30T05:29:40;17.35;;;13.45;;
22904;SDS011;11619;50.140;8.518;2024-01-30T05:32:09;18.92;;;13.63;;
22904;SDS011;11619;50.140;8.518;2024-01-30T05:34:36;18.05;;;13.80;;
22904;SDS011;11619;50.140;8.518;2024-01-30T05:37:03;17.80;;;14.18;;
22904;SDS011;11619;50.140;8.518;2024-01-30T05:39:29;17.02;;;14.40;;
22904;SDS011;11619;50.140;8.518;2024-01-30T05:41:58;15.73;;;12.98;;
22904;SDS011;11619;50.140;8.518;2024-01-30T05:44:25;14.65;;;13.10;;
22904;SDS011;11619;50.140;8.518;2024-01-30T05:46:51;14.07;;;12.57;;
22904;SDS011;11619;50.140;8.518;2024-01-30T05:49:18;15.90;;;13.48;;
22904;SDS011;11619;50.140;8.518;2024-01-30T05:51:44;14.43;;;12.55;;
22904;SDS011;11619;50.140;8.518;2024-01-30T05:54:11;17.27;;;13.52;;
22904;SDS011;11619;50.140;8.518;2024-01-30T05:56:41;19.55;;;12.55;;
22904;SDS011;11619;50.140;8.518;2024-01-30T05:59:08;18.52;;;14.77;;
22904;SDS011;11619;50.140;8.518;2024-01-30T06:01:34;18.42;;;13.90;;
22904;SDS011;11619;50.140;8.518;2024-01-30T06:04:01;17.27;;;14.35;;
22904;SDS011;11619;50.140;8.518;2024-01-30T06:06:27;17.88;;;14.65;;
22904;SDS011;11619;50.140;8.518;2024-01-30T06:08:54;17.75;;;14.32;;
22904;SDS011;11619;50.140;8.518;2024-01-30T06:11:22;17.13;;;13.35;;
22904;SDS011;11619;50.140;8.518;2024-01-30T06:13:48;19.30;;;15.18;;
22904;SDS011;11619;50.140;8.518;2024-01-30T06:16:15;18.45;;;13.52;;
22904;SDS011;11619;50.140;8.518;2024-01-30T06:18:41;18.27;;;15.30;;
22904;SDS011;11619;50.140;8.518;2024-01-30T06:21:08;17.00;;;13.43;;
22904;SDS011;11619;50.140;8.518;2024-01-30T06:23:38;16.92;;;14.00;;
22904;SDS011;11619;50.140;8.518;2024-01-30T06:26:05;15.18;;;13.15;;
22904;SDS011;11619;50.140;8.518;2024-01-30T06:28:32;19.05;;;14.27;;
22904;SDS011;11619;50.140;8.518;2024-01-30T06:31:00;16.77;;;13.80;;
22904;SDS011;11619;50.140;8.518;2024-01-30T06:33:27;16.50;;;14.05;;
22904;SDS011;11619;50.140;8.518;2024-01-30T06:35:54;18.58;;;14.38;;
22904;SDS011;11619;50.140;8.518;2024-01-30T06:38:21;17.83;;;13.38;;
22904;SDS011;11619;50.140;8.518;2024-01-30T06:40:48;17.67;;;13.70;;
22904;SDS011;11619;50.140;8.518;2024-01-30T06:43:14;19.58;;;14.80;;
22904;SDS011;11619;50.140;8.518;2024-01-30T06:45:41;16.27;;;13.75;;
22904;SDS011;11619;50.140;8.518;2024-01-30T06:48:09;20.80;;;14.68;;
22904;SDS011;11619;50.140;8.518;2024-01-30T06:50:35;16.90;;;14.05;;
22904;SDS011;11619;50.140;8.518;2024-01-30T06:53:02;19.65;;;14.68;;
22904;SDS011;11619;50.140;8.518;2024-01-30T06:55:28;19.27;;;15.77;;
22904;SDS011;11619;50.140;8.518;2024-01-30T06:57:55;28.98;;;22.08;;
22904;SDS011;11619;50.140;8.518;2024-01-30T07:00:21;33.95;;;26.42;;
22904;SDS011;11619;50.140;8.518;2024-01-30T07:02:48;34.28;;;26.77;;
22904;SDS011;11619;50.140;8.518;2024-01-30T07:05:15;36.17;;;27.60;;
22904;SDS011;11619;50.140;8.518;2024-01-30T07:07:41;35.10;;;26.65;;
22904;SDS011;11619;50.140;8.518;2024-01-30T07:10:08;29.38;;;24.27;;
22904;SDS011;11619;50.140;8.518;2024-01-30T07:12:35;29.48;;;22.45;;
22904;SDS011;11619;50.140;8.518;2024-01-30T07:15:02;22.42;;;20.02;;
22904;SDS011;11619;50.140;8.518;2024-01-30T07:17:29;22.65;;;19.75;;
22904;SDS011;11619;50.140;8.518;2024-01-30T07:19:55;20.92;;;18.65;;
22904;SDS011;11619;50.140;8.518;2024-01-30T07:22:22;24.30;;;16.52;;
22904;SDS011;11619;50.140;8.518;2024-01-30T07:24:49;26.33;;;16.58;;
22904;SDS011;11619;50.140;8.518;2024-01-30T07:27:17;20.10;;;15.57;;
22904;SDS011;11619;50.140;8.518;2024-01-30T07:29:44;16.08;;;13.95;;
22904;SDS011;11619;50.140;8.518;2024-01-30T07:32:10;15.25;;;13.00;;
22904;SDS011;11619;50.140;8.518;2024-01-30T07:34:37;17.45;;;13.90;;
22904;SDS011;11619;50.140;8.518;2024-01-30T07:37:18;15.82;;;14.10;;
22904;SDS011;11619;50.140;8.518;2024-01-30T07:39:45;15.57;;;13.50;;
22904;SDS011;11619;50.140;8.518;2024-01-30T07:42:13;15.70;;;13.80;;
22904;SDS011;11619;50.140;8.518;2024-01-30T07:44:39;18.45;;;13.93;;
22904;SDS011;11619;50.140;8.518;2024-01-30T07:47:07;17.35;;;14.85;;
22904;SDS011;11619;50.140;8.518;2024-01-30T07:49:35;18.48;;;14.82;;
22904;SDS011;11619;50.140;8.518;2024-01-30T07:52:01;17.90;;;15.48;;
22904;SDS011;11619;50.140;8.518;2024-01-30T07:54:31;18.85;;;15.20;;
22904;SDS011;11619;50.140;8.518;2024-01-30T07:57:00;20.08;;;15.05;;
22904;SDS011;11619;50.140;8.518;2024-01-30T07:59:27;18.05;;;15.73;;
22904;SDS011;11619;50.140;8.518;2024-01-30T08:01:53;19.00;;;16.45;;
22904;SDS011;11619;50.140;8.518;2024-01-30T08:04:20;21.35;;;16.38;;
22904;SDS011;11619;50.140;8.518;2024-01-30T08:06:47;23.30;;;16.02;;
22904;SDS011;11619;50.140;8.518;2024-01-30T08:09:14;20.30;;;16.67;;
22904;SDS011;11619;50.140;8.518;2024-01-30T08:11:40;19.08;;;15.75;;
22904;SDS011;11619;50.140;8.518;2024-01-30T08:14:07;21.35;;;16.95;;
22904;SDS011;11619;50.140;8.518;2024-01-30T08:16:33;22.63;;;17.85;;
22904;SDS011;11619;50.140;8.518;2024-01-30T08:19:00;23.10;;;18.25;;
22904;SDS011;11619;50.140;8.518;2024-01-30T08:21:27;21.60;;;17.50;;
22904;SDS011;11619;50.140;8.518;2024-01-30T08:23:54;23.60;;;20.02;;
22904;SDS011;11619;50.140;8.518;2024-01-30T08:26:20;27.92;;;20.45;;
22904;SDS011;11619;50.140;8.518;2024-01-30T08:28:47;28.42;;;20.70;;
22904;SDS011;11619;50.140;8.518;2024-01-30T08:31:14;25.17;;;20.27;;
22904;SDS011;11619;50.140;8.518;2024-01-30T08:33:41;30.70;;;22.83;;
22904;SDS011;11619;50.140;8.518;2024-01-30T08:36:09;30.08;;;22.55;;
22904;SDS011;11619;50.140;8.518;2024-01-30T08:38:35;25.65;;;22.75;;
22904;SDS011;11619;50.140;8.518;2024-01-30T08:41:02;28.88;;;24.00;;
22904;SDS011;11619;50.140;8.518;2024-01-30T08:43:29;28.20;;;23.63;;
22904;SDS011;11619;50.140;8.518;2024-01-30T08:45:58;28.23;;;23.33;;
22904;SDS011;11619;50.140;8.518;2024-01-30T08:48:26;30.92;;;22.75;;
22904;SDS011;11619;50.140;8.518;2024-01-30T08:50:53;36.55;;;23.48;;
22904;SDS011;11619;50.140;8.518;2024-01-30T08:53:19;28.77;;;22.95;;
22904;SDS011;11619;50.140;8.518;2024-01-30T08:55:46;28.55;;;22.58;;
22904;SDS011;11619;50.140;8.518;2024-01-30T08:58:12;30.23;;;22.92;;
22904;SDS011;11619;50.140;8.518;2024-01-30T09:00:39;27.25;;;22.58;;
22904;SDS011;11619;50.140;8.518;2024-01-30T09:03:05;29.38;;;22.17;;
22904;SDS011;11619;50.140;8.518;2024-01-30T09:05:32;30.02;;;24.17;;
22904;SDS011;11619;50.140;8.518;2024-01-30T09:07:58;29.25;;;22.23;;
22904;SDS011;11619;50.140;8.518;2024-01-30T09:10:25;30.98;;;22.60;;
22904;SDS011;11619;50.140;8.518;2024-01-30T09:12:51;25.95;;;21.55;;
22904;SDS011;11619;50.140;8.518;2024-01-30T09:15:18;24.80;;;21.80;;
22904;SDS011;11619;50.140;8.518;2024-01-30T09:17:45;24.85;;;20.88;;
22904;SDS011;11619;50.140;8.518;2024-01-30T09:20:11;26.88;;;22.00;;
22904;SDS011;11619;50.140;8.518;2024-01-30T09:22:38;26.05;;;20.92;;
22904;SDS011;11619;50.140;8.518;2024-01-30T09:25:04;26.55;;;21.65;;
22904;SDS011;11619;50.140;8.518;2024-01-30T09:27:31;25.88;;;22.05;;
22904;SDS011;11619;50.140;8.518;2024-01-30T09:29:57;24.13;;;20.92;;
22904;SDS011;11619;50.140;8.518;2024-01-30T09:32:24;26.08;;;22.15;;
22904;SDS011;11619;50.140;8.518;2024-01-30T09:34:51;25.10;;;21.73;;
22904;SDS011;11619;50.140;8.518;2024-01-30T09:37:17;24.35;;;21.73;;
22904;SDS011;11619;50.140;8.518;2024-01-30T09:39:44;32.75;;;23.33;;
22904;SDS011;11619;50.140;8.518;2024-01-30T09:42:26;28.63;;;20.83;;
22904;SDS011;11619;50.140;8.518;2024-01-30T09:44:58;26.40;;;20.92;;
22904;SDS011;11619;50.140;8.518;2024-01-30T09:47:24;25.40;;;20.98;;
22904;SDS011;11619;50.140;8.518;2024-01-30T09:49:52;25.48;;;21.60;;
22904;SDS011;11619;50.140;8.518;2024-01-30T09:52:18;25.50;;;21.00;;
22904;SDS011;11619;50.140;8.518;2024-01-30T09:54:45;24.40;;;21.00;;
22904;SDS011;11619;50.140;8.518;2024-01-30T09:57:11;24.90;;;20.98;;
22904;SDS011;11619;50.140;8.518;2024-01-30T09:59:38;23.77;;;20.80;;
22904;SDS011;11619;50.140;8.518;2024-01-30T10:02:04;25.95;;;21.48;;
22904;SDS011;11619;50.140;8.518;2024-01-30T10:04:31;24.55;;;21.33;;
22904;SDS011;11619;50.140;8.518;2024-01-30T10:06:59;27.08;;;21.10;;
22904;SDS011;11619;50.140;8.518;2024-01-30T10:09:27;27.25;;;21.33;;
22904;SDS011;11619;50.140;8.518;2024-01-30T10:11:54;24.30;;;20.92;;
22904;SDS011;11619;50.140;8.518;2024-01-30T10:14:20;23.80;;;19.73;;
22904;SDS011;11619;50.140;8.518;2024-01-30T10:16:47;23.60;;;20.08;;
22904;SDS011;11619;50.140;8.518;2024-01-30T10:19:13;24.95;;;20.17;;
22904;SDS011;11619;50.140;8.518;2024-01-30T10:21:40;24.95;;;19.20;;
22904;SDS011;11619;50.140;8.518;2024-01-30T10:24:07;23.80;;;20.48;;
22904;SDS011;11619;50.140;8.518;2024-01-30T10:26:33;23.08;;;19.05;;
22904;SDS011;11619;50.140;8.518;2024-01-30T10:29:00;25.45;;;20.55;;
22904;SDS011;11619;50.140;8.518;2024-01-30T10:31:27;26.02;;;20.65;;
22904;SDS011;11619;50.140;8.518;2024-01-30T10:33:53;27.50;;;21.45;;
22904;SDS011;11619;50.140;8.518;2024-01-30T10:36:40;24.52;;;19.60;;
22904;SDS011;11619;50.140;8.518;2024-01-30T10:39:08;26.40;;;20.17;;
22904;SDS011;11619;50.140;8.518;2024-01-30T10:41:44;22.02;;;19.65;;
22904;SDS011;11619;50.140;8.518;2024-01-30T10:44:10;26.20;;;20.65;;
22904;SDS011;11619;50.140;8.518;2024-01-30T10:46:38;25.70;;;20.60;;
22904;SDS011;11619;50.140;8.518;2024-01-30T10:49:05;26.38;;;20.05;;
22904;SDS011;11619;50.140;8.518;2024-01-30T10:51:32;26.83;;;21.75;;
22904;SDS011;11619;50.140;8.518;2024-01-30T10:54:01;26.92;;;19.92;;
22904;SDS011;11619;50.140;8.518;2024-01-30T10:56:29;24.05;;;20.85;;
22904;SDS011;11619;50.140;8.518;2024-01-30T10:58:58;30.55;;;22.05;;
22904;SDS011;11619;50.140;8.518;2024-01-30T11:01:25;25.80;;;21.65;;
22904;SDS011;11619;50.140;8.518;2024-01-30T11:03:52;24.77;;;21.38;;
22904;SDS011;11619;50.140;8.518;2024-01-30T11:06:22;26.15;;;21.95;;
22904;SDS011;11619;50.140;8.518;2024-01-30T11:09:01;25.88;;;21.27;;
22904;SDS011;11619;50.140;8.518;2024-01-30T11:14:27;26.65;;;20.88;;
22904;SDS011;11619;50.140;8.518;2024-01-30T11:16:58;23.65;;;20.50;;
22904;SDS011;11619;50.140;8.518;2024-01-30T11:19:26;23.38;;;20.75;;
22904;SDS011;11619;50.140;8.518;2024-01-30T11:21:53;23.23;;;19.40;;
22904;SDS011;11619;50.140;8.518;2024-01-30T11:24:20;21.80;;;19.30;;
22904;SDS011;11619;50.140;8.518;2024-01-30T11:26:57;21.45;;;19.15;;
22904;SDS011;11619;50.140;8.518;2024-01-30T11:29:27;23.63;;;19.17;;
22904;SDS011;11619;50.140;8.518;2024-01-30T11:31:55;25.48;;;20.63;;
22904;SDS011;11619;50.140;8.518;2024-01-30T11:34:22;25.35;;;19.08;;
22904;SDS011;11619;50.140;8.518;2024-01-30T11:36:53;23.63;;;19.20;;
22904;SDS011;11619;50.140;8.518;2024-01-30T11:39:25;22.30;;;18.58;;
22904;SDS011;11619;50.140;8.518;2024-01-30T11:41:55;21.27;;;18.88;;
22904;SDS011;11619;50.140;8.518;2024-01-30T11:44:22;22.20;;;19.55;;
22904;SDS011;11619;50.140;8.518;2024-01-30T11:46:49;22.38;;;19.23;;
22904;SDS011;11619;50.140;8.518;2024-01-30T11:49:16;23.52;;;19.88;;
22904;SDS011;11619;50.140;8.518;2024-01-30T11:51:46;24.10;;;21.50;;
22904;SDS011;11619;50.140;8.518;2024-01-30T11:54:17;23.80;;;19.27;;
22904;SDS011;11619;50.140;8.518;2024-01-30T11:56:44;21.90;;;19.08;;
22904;SDS011;11619;50.140;8.518;2024-01-30T11:59:10;29.38;;;21.75;;
22904;SDS011;11619;50.140;8.518;2024-01-30T12:01:41;23.27;;;19.95;;
22904;SDS011;11619;50.140;8.518;2024-01-30T12:04:07;23.10;;;19.75;;
22904;SDS011;11619;50.140;8.518;2024-01-30T12:06:36;25.15;;;19.58;;
22904;SDS011;11619;50.140;8.518;2024-01-30T12:09:04;25.25;;;19.73;;
22904;SDS011;11619;50.140;8.518;2024-01-30T12:11:31;23.02;;;19.40;;
22904;SDS011;11619;50.140;8.518;2024-01-30T12:13:58;24.23;;;19.67;;
22904;SDS011;11619;50.140;8.518;2024-01-30T12:16:25;23.85;;;18.88;;
22904;SDS011;11619;50.140;8.518;2024-01-30T12:19:00;22.65;;;19.33;;
22904;SDS011;11619;50.140;8.518;2024-01-30T12:21:28;24.80;;;19.67;;
22904;SDS011;11619;50.140;8.518;2024-01-30T12:23:56;23.58;;;19.05;;
22904;SDS011;11619;50.140;8.518;2024-01-30T12:26:23;20.45;;;18.35;;
22904;SDS011;11619;50.140;8.518;2024-01-30T12:28:55;28.13;;;20.35;;
22904;SDS011;11619;50.140;8.518;2024-01-30T12:31:25;23.08;;;19.90;;
22904;SDS011;11619;50.140;8.518;2024-01-30T12:33:53;24.25;;;20.55;;
22904;SDS011;11619;50.140;8.518;2024-01-30T12:36:21;23.15;;;19.25;;
22904;SDS011;11619;50.140;8.518;2024-01-30T12:38:48;23.20;;;20.08;;
22904;SDS011;11619;50.140;8.518;2024-01-30T12:41:15;25.65;;;19.55;;
22904;SDS011;11619;50.140;8.518;2024-01-30T12:43:41;21.52;;;19.23;;
22904;SDS011;11619;50.140;8.518;2024-01-30T12:46:08;25.45;;;18.73;;
22904;SDS011;11619;50.140;8.518;2024-01-30T12:48:35;23.08;;;19.95;;
22904;SDS011;11619;50.140;8.518;2024-01-30T12:51:02;22.98;;;19.17;;
22904;SDS011;11619;50.140;8.518;2024-01-30T12:53:28;21.42;;;17.95;;
22904;SDS011;11619;50.140;8.518;2024-01-30T12:55:55;20.30;;;17.90;;
22904;SDS011;11619;50.140;8.518;2024-01-30T12:58:21;19.05;;;17.05;;
22904;SDS011;11619;50.140;8.518;2024-01-30T13:00:48;25.83;;;18.38;;
22904;SDS011;11619;50.140;8.518;2024-01-30T13:03:15;21.83;;;18.70;;
22904;SDS011;11619;50.140;8.518;2024-01-30T13:05:42;21.88;;;17.63;;
22904;SDS011;11619;50.140;8.518;2024-01-30T13:08:09;24.30;;;18.85;;
22904;SDS011;11619;50.140;8.518;2024-01-30T13:10:35;21.83;;;17.77;;
22904;SDS011;11619;50.140;8.518;2024-01-30T13:13:02;22.90;;;17.15;;
22904;SDS011;11619;50.140;8.518;2024-01-30T13:15:28;20.85;;;16.52;;
22904;SDS011;11619;50.140;8.518;2024-01-30T13:17:55;19.13;;;17.05;;
22904;SDS011;11619;50.140;8.518;2024-01-30T13:20:25;20.83;;;17.17;;
22904;SDS011;11619;50.140;8.518;2024-01-30T13:22:52;21.27;;;18.48;;
22904;SDS011;11619;50.140;8.518;2024-01-30T13:25:19;24.48;;;20.52;;
22904;SDS011;11619;50.140;8.518;2024-01-30T13:27:45;25.85;;;19.38;;
22904;SDS011;11619;50.140;8.518;2024-01-30T13:30:12;18.73;;;16.85;;
22904;SDS011;11619;50.140;8.518;2024-01-30T13:32:39;22.73;;;18.05;;
22904;SDS011;11619;50.140;8.518;2024-01-30T13:35:07;24.05;;;17.70;;
22904;SDS011;11619;50.140;8.518;2024-01-30T13:37:35;22.73;;;19.02;;
22904;SDS011;11619;50.140;8.518;2024-01-30T13:40:05;22.30;;;17.17;;
22904;SDS011;11619;50.140;8.518;2024-01-30T13:42:39;19.10;;;17.02;;
22904;SDS011;11619;50.140;8.518;2024-01-30T13:45:06;19.23;;;16.92;;
22904;SDS011;11619;50.140;8.518;2024-01-30T13:47:32;19.58;;;17.00;;
22904;SDS011;11619;50.140;8.518;2024-01-30T13:49:59;24.17;;;17.08;;
22904;SDS011;11619;50.140;8.518;2024-01-30T13:52:26;20.60;;;17.38;;
22904;SDS011;11619;50.140;8.518;2024-01-30T13:55:00;19.42;;;17.17;;
22904;SDS011;11619;50.140;8.518;2024-01-30T13:57:27;20.85;;;17.63;;
22904;SDS011;11619;50.140;8.518;2024-01-30T13:59:53;22.17;;;17.05;;
22904;SDS011;11619;50.140;8.518;2024-01-30T14:02:20;23.35;;;17.83;;
22904;SDS011;11619;50.140;8.518;2024-01-30T14:04:49;22.45;;;17.77;;
22904;SDS011;11619;50.140;8.518;2024-01-30T14:07:15;22.83;;;18.75;;
22904;SDS011;11619;50.140;8.518;2024-01-30T14:09:44;20.38;;;17.77;;
22904;SDS011;11619;50.140;8.518;2024-01-30T14:12:11;22.33;;;17.17;;
22904;SDS011;11619;50.140;8.518;2024-01-30T14:14:38;20.25;;;17.10;;
22904;SDS011;11619;50.140;8.518;2024-01-30T14:17:07;20.00;;;17.85;;
22904;SDS011;11619;50.140;8.518;2024-01-30T14:19:34;21.00;;;18.30;;
22904;SDS011;11619;50.140;8.518;2024-01-30T14:22:01;20.70;;;18.23;;
22904;SDS011;11619;50.140;8.518;2024-01-30T14:24:30;26.17;;;19.20;;